sensor_id;sensor_type;location;lat;lon;timestamp;P1;durP1;ratioP1;P2;durP2;ratioP2
49223;SDS011;35050;51.316;5.994;2024-03-23T00:54:09;17.17;;;2.40;;
49223;SDS011;35050;51.316;5.994;2024-03-23T00:56:35;6.63;;;2.17;;
49223;SDS011;35050;51.316;5.994;2024-03-23T00:59:01;6.88;;;2.05;;
49223;SDS011;35050;51.316;5.994;2024-03-23T01:01:26;5.60;;;2.08;;
49223;SDS011;35050;51.316;5.994;2024-03-23T01:03:52;7.05;;;2.22;;
49223;SDS011;35050;51.316;5.994;2024-03-23T01:06:18;6.82;;;1.90;;
49223;SDS011;35050;51.316;5.994;2024-03-23T01:08:43;6.50;;;2.60;;
49223;SDS011;35050;51.316;5.994;2024-03-23T01:11:09;9.48;;;2.42;;
49223;SDS011;35050;51.316;5.994;2024-03-23T01:13:34;5.53;;;1.83;;
49223;SDS011;35050;51.316;5.994;2024-03-23T01:16:00;7.82;;;2.40;;
49223;SDS011;35050;51.316;5.994;2024-03-23T01:18:26;6.47;;;2.00;;
49223;SDS011;35050;51.316;5.994;2024-03-23T01:20:52;6.53;;;1.95;;
49223;SDS011;35050;51.316;5.994;2024-03-23T01:23:17;6.13;;;1.80;;
49223;SDS011;35050;51.316;5.994;2024-03-23T01:25:43;9.18;;;2.03;;
49223;SDS011;35050;51.316;5.994;2024-03-23T01:28:09;7.03;;;2.17;;
49223;SDS011;35050;51.316;5.994;2024-03-23T01:30:35;5.70;;;1.95;;
49223;SDS011;35050;51.316;5.994;2024-03-23T01:33:01;8.23;;;1.90;;
49223;SDS011;35050;51.316;5.994;2024-03-23T01:35:30;5.75;;;1.98;;
49223;SDS011;35050;51.316;5.994;2024-03-23T01:37:56;6.63;;;2.28;;
49223;SDS011;35050;51.316;5.994;2024-03-23T01:40:21;5.38;;;2.13;;
49223;SDS011;35050;51.316;5.994;2024-03-23T01:43:03;6.97;;;1.83;;
49223;SDS011;35050;51.316;5.994;2024-03-23T01:45:30;7.00;;;2.23;;
49223;SDS011;35050;51.316;5.994;2024-03-23T01:47:56;5.22;;;1.75;;
49223;SDS011;35050;51.316;5.994;2024-03-23T01:50:22;6.47;;;2.10;;
49223;SDS011;35050;51.316;5.994;2024-03-23T01:52:48;5.13;;;1.70;;
49223;SDS011;35050;51.316;5.994;2024-03-23T01:55:16;6.75;;;2.03;;
49223;SDS011;35050;51.316;5.994;2024-03-23T01:57:42;5.07;;;1.63;;
49223;SDS011;35050;51.316;5.994;2024-03-23T02:00:08;6.22;;;1.92;;
49223;SDS011;35050;51.316;5.994;2024-03-23T02:02:37;4.90;;;1.52;;
49223;SDS011;35050;51.316;5.994;2024-03-23T02:05:09;5.32;;;1.83;;
49223;SDS011;35050;51.316;5.994;2024-03-23T02:07:36;6.55;;;2.15;;
49223;SDS011;35050;51.316;5.994;2024-03-23T02:10:04;5.18;;;1.98;;
49223;SDS011;35050;51.316;5.994;2024-03-23T02:12:31;6.47;;;2.20;;
49223;SDS011;35050;51.316;5.994;2024-03-23T02:14:56;5.80;;;2.08;;
49223;SDS011;35050;51.316;5.994;2024-03-23T02:17:22;6.22;;;2.17;;
49223;SDS011;35050;51.316;5.994;2024-03-23T02:19:47;7.00;;;2.10;;
49223;SDS011;35050;51.316;5.994;2024-03-23T02:22:13;9.63;;;2.13;;
49223;SDS011;35050;51.316;5.994;2024-03-23T02:24:40;10.07;;;2.35;;
49223;SDS011;35050;51.316;5.994;2024-03-23T02:27:06;9.38;;;2.40;;
49223;SDS011;35050;51.316;5.994;2024-03-23T02:29:32;5.53;;;2.13;;
49223;SDS011;35050;51.316;5.994;2024-03-23T02:31:57;6.43;;;2.15;;
49223;SDS011;35050;51.316;5.994;2024-03-23T02:34:24;5.70;;;2.30;;
49223;SDS011;35050;51.316;5.994;2024-03-23T02:36:49;9.25;;;2.63;;
49223;SDS011;35050;51.316;5.994;2024-03-23T02:39:15;8.07;;;2.40;;
49223;SDS011;35050;51.316;5.994;2024-03-23T02:41:41;5.75;;;2.40;;
49223;SDS011;35050;51.316;5.994;2024-03-23T02:44:06;8.32;;;2.75;;
49223;SDS011;35050;51.316;5.994;2024-03-23T02:46:32;7.78;;;2.55;;
49223;SDS011;35050;51.316;5.994;2024-03-23T02:48:58;5.03;;;1.90;;
49223;SDS011;35050;51.316;5.994;2024-03-23T02:51:24;5.65;;;2.55;;
49223;SDS011;35050;51.316;5.994;2024-03-23T02:53:49;7.40;;;2.45;;
49223;SDS011;35050;51.316;5.994;2024-03-23T02:56:15;8.82;;;2.45;;
49223;SDS011;35050;51.316;5.994;2024-03-23T02:58:42;11.77;;;2.80;;
49223;SDS011;35050;51.316;5.994;2024-03-23T03:01:08;11.75;;;2.65;;
49223;SDS011;35050;51.316;5.994;2024-03-23T03:03:33;9.88;;;2.80;;
49223;SDS011;35050;51.316;5.994;2024-03-23T03:05:59;8.48;;;2.40;;
49223;SDS011;35050;51.316;5.994;2024-03-23T03:08:25;8.15;;;2.72;;
49223;SDS011;35050;51.316;5.994;2024-03-23T03:10:50;9.95;;;2.30;;
49223;SDS011;35050;51.316;5.994;2024-03-23T03:13:16;9.63;;;2.70;;
49223;SDS011;35050;51.316;5.994;2024-03-23T03:15:45;9.82;;;2.70;;
49223;SDS011;35050;51.316;5.994;2024-03-23T03:18:10;12.10;;;2.97;;
49223;SDS011;35050;51.316;5.994;2024-03-23T03:20:39;9.02;;;2.95;;
49223;SDS011;35050;51.316;5.994;2024-03-23T03:23:05;8.52;;;2.97;;
49223;SDS011;35050;51.316;5.994;2024-03-23T03:25:31;11.38;;;3.05;;
49223;SDS011;35050;51.316;5.994;2024-03-23T03:27:57;7.85;;;3.03;;
49223;SDS011;35050;51.316;5.994;2024-03-23T03:30:22;7.10;;;2.78;;
49223;SDS011;35050;51.316;5.994;2024-03-23T03:32:49;6.40;;;2.78;;
49223;SDS011;35050;51.316;5.994;2024-03-23T03:35:14;9.60;;;2.78;;
49223;SDS011;35050;51.316;5.994;2024-03-23T03:37:40;8.38;;;2.42;;
49223;SDS011;35050;51.316;5.994;2024-03-23T03:40:06;7.72;;;2.92;;
49223;SDS011;35050;51.316;5.994;2024-03-23T03:42:34;8.38;;;3.00;;
49223;SDS011;35050;51.316;5.994;2024-03-23T03:44:59;8.43;;;3.15;;
49223;SDS011;35050;51.316;5.994;2024-03-23T03:47:25;9.45;;;2.67;;
49223;SDS011;35050;51.316;5.994;2024-03-23T03:49:51;8.95;;;2.83;;
49223;SDS011;35050;51.316;5.994;2024-03-23T03:52:16;5.57;;;2.67;;
49223;SDS011;35050;51.316;5.994;2024-03-23T03:54:42;6.20;;;2.80;;
49223;SDS011;35050;51.316;5.994;2024-03-23T03:57:08;7.38;;;2.78;;
49223;SDS011;35050;51.316;5.994;2024-03-23T03:59:33;5.57;;;2.85;;
49223;SDS011;35050;51.316;5.994;2024-03-23T04:01:59;6.75;;;3.15;;
49223;SDS011;35050;51.316;5.994;2024-03-23T04:04:25;6.85;;;2.97;;
49223;SDS011;35050;51.316;5.994;2024-03-23T04:06:57;8.38;;;2.83;;
49223;SDS011;35050;51.316;5.994;2024-03-23T04:09:26;6.80;;;2.90;;
49223;SDS011;35050;51.316;5.994;2024-03-23T04:11:52;7.65;;;3.00;;
49223;SDS011;35050;51.316;5.994;2024-03-23T04:14:18;9.30;;;2.63;;
49223;SDS011;35050;51.316;5.994;2024-03-23T04:16:44;6.97;;;2.83;;
49223;SDS011;35050;51.316;5.994;2024-03-23T04:19:09;10.00;;;2.85;;
49223;SDS011;35050;51.316;5.994;2024-03-23T04:21:35;6.35;;;2.30;;
49223;SDS011;35050;51.316;5.994;2024-03-23T04:24:02;8.30;;;2.70;;
49223;SDS011;35050;51.316;5.994;2024-03-23T04:26:28;6.90;;;2.53;;
49223;SDS011;35050;51.316;5.994;2024-03-23T04:28:54;3.92;;;2.40;;
49223;SDS011;35050;51.316;5.994;2024-03-23T04:31:19;7.45;;;2.95;;
49223;SDS011;35050;51.316;5.994;2024-03-23T04:33:45;9.00;;;3.10;;
49223;SDS011;35050;51.316;5.994;2024-03-23T04:36:10;5.85;;;2.80;;
49223;SDS011;35050;51.316;5.994;2024-03-23T04:38:36;8.73;;;3.00;;
49223;SDS011;35050;51.316;5.994;2024-03-23T04:41:02;7.65;;;2.90;;
49223;SDS011;35050;51.316;5.994;2024-03-23T04:43:28;8.60;;;3.03;;
49223;SDS011;35050;51.316;5.994;2024-03-23T04:45:54;12.25;;;3.47;;
49223;SDS011;35050;51.316;5.994;2024-03-23T04:48:20;10.05;;;3.35;;
49223;SDS011;35050;51.316;5.994;2024-03-23T04:50:49;12.52;;;3.08;;
49223;SDS011;35050;51.316;5.994;2024-03-23T04:53:20;6.30;;;2.65;;
49223;SDS011;35050;51.316;5.994;2024-03-23T04:55:46;8.82;;;2.95;;
49223;SDS011;35050;51.316;5.994;2024-03-23T04:58:11;10.32;;;3.50;;
49223;SDS011;35050;51.316;5.994;2024-03-23T05:00:38;10.15;;;3.78;;
49223;SDS011;35050;51.316;5.994;2024-03-23T05:03:03;11.73;;;3.72;;
49223;SDS011;35050;51.316;5.994;2024-03-23T05:05:29;8.80;;;3.50;;
49223;SDS011;35050;51.316;5.994;2024-03-23T05:07:55;10.85;;;3.47;;
49223;SDS011;35050;51.316;5.994;2024-03-23T05:10:21;8.45;;;3.83;;
49223;SDS011;35050;51.316;5.994;2024-03-23T05:12:46;9.90;;;4.13;;
49223;SDS011;35050;51.316;5.994;2024-03-23T05:15:12;13.15;;;4.45;;
49223;SDS011;35050;51.316;5.994;2024-03-23T05:17:37;7.70;;;3.80;;
49223;SDS011;35050;51.316;5.994;2024-03-23T05:20:03;10.85;;;3.85;;
49223;SDS011;35050;51.316;5.994;2024-03-23T05:22:34;11.27;;;3.65;;
49223;SDS011;35050;51.316;5.994;2024-03-23T05:25:03;10.25;;;3.70;;
49223;SDS011;35050;51.316;5.994;2024-03-23T05:27:30;9.05;;;3.60;;
49223;SDS011;35050;51.316;5.994;2024-03-23T05:29:58;8.98;;;3.35;;
49223;SDS011;35050;51.316;5.994;2024-03-23T05:32:24;7.45;;;3.58;;
49223;SDS011;35050;51.316;5.994;2024-03-23T05:34:50;13.00;;;4.30;;
49223;SDS011;35050;51.316;5.994;2024-03-23T05:37:20;10.45;;;4.65;;
49223;SDS011;35050;51.316;5.994;2024-03-23T05:39:46;11.90;;;4.68;;
49223;SDS011;35050;51.316;5.994;2024-03-23T05:42:14;14.40;;;4.60;;
49223;SDS011;35050;51.316;5.994;2024-03-23T05:44:42;12.38;;;4.57;;
49223;SDS011;35050;51.316;5.994;2024-03-23T05:47:09;10.27;;;4.22;;
49223;SDS011;35050;51.316;5.994;2024-03-23T05:49:34;11.20;;;4.30;;
49223;SDS011;35050;51.316;5.994;2024-03-23T05:52:00;11.73;;;4.93;;
49223;SDS011;35050;51.316;5.994;2024-03-23T05:54:28;9.23;;;4.85;;
49223;SDS011;35050;51.316;5.994;2024-03-23T05:56:54;11.65;;;4.55;;
49223;SDS011;35050;51.316;5.994;2024-03-23T05:59:20;11.23;;;5.15;;
49223;SDS011;35050;51.316;5.994;2024-03-23T06:01:49;13.68;;;5.22;;
49223;SDS011;35050;51.316;5.994;2024-03-23T06:04:15;13.07;;;5.75;;
49223;SDS011;35050;51.316;5.994;2024-03-23T06:06:40;12.55;;;5.00;;
49223;SDS011;35050;51.316;5.994;2024-03-23T06:09:06;13.60;;;4.68;;
49223;SDS011;35050;51.316;5.994;2024-03-23T06:11:32;10.63;;;4.97;;
49223;SDS011;35050;51.316;5.994;2024-03-23T06:13:57;16.77;;;5.80;;
49223;SDS011;35050;51.316;5.994;2024-03-23T06:16:23;13.07;;;5.05;;
49223;SDS011;35050;51.316;5.994;2024-03-23T06:18:50;14.40;;;6.75;;
49223;SDS011;35050;51.316;5.994;2024-03-23T06:21:16;11.23;;;5.22;;
49223;SDS011;35050;51.316;5.994;2024-03-23T06:23:42;16.48;;;5.80;;
49223;SDS011;35050;51.316;5.994;2024-03-23T06:26:08;10.65;;;5.15;;
49223;SDS011;35050;51.316;5.994;2024-03-23T06:28:33;13.70;;;4.78;;
49223;SDS011;35050;51.316;5.994;2024-03-23T06:30:59;17.92;;;5.30;;
49223;SDS011;35050;51.316;5.994;2024-03-23T06:33:25;10.77;;;5.05;;
49223;SDS011;35050;51.316;5.994;2024-03-23T06:35:51;13.73;;;5.07;;
49223;SDS011;35050;51.316;5.994;2024-03-23T06:38:17;11.50;;;4.78;;
49223;SDS011;35050;51.316;5.994;2024-03-23T06:40:43;16.95;;;5.35;;
49223;SDS011;35050;51.316;5.994;2024-03-23T06:43:15;13.25;;;4.97;;
49223;SDS011;35050;51.316;5.994;2024-03-23T06:45:41;15.18;;;5.25;;
49223;SDS011;35050;51.316;5.994;2024-03-23T06:48:07;12.48;;;4.60;;
49223;SDS011;35050;51.316;5.994;2024-03-23T06:50:33;14.05;;;4.72;;
49223;SDS011;35050;51.316;5.994;2024-03-23T06:52:59;12.48;;;4.72;;
49223;SDS011;35050;51.316;5.994;2024-03-23T06:55:24;11.90;;;4.53;;
49223;SDS011;35050;51.316;5.994;2024-03-23T06:57:51;8.13;;;4.03;;
49223;SDS011;35050;51.316;5.994;2024-03-23T07:00:17;11.27;;;5.20;;
49223;SDS011;35050;51.316;5.994;2024-03-23T07:02:43;11.43;;;4.88;;
49223;SDS011;35050;51.316;5.994;2024-03-23T07:05:11;15.32;;;5.30;;
49223;SDS011;35050;51.316;5.994;2024-03-23T07:07:40;12.88;;;4.75;;
49223;SDS011;35050;51.316;5.994;2024-03-23T07:10:06;10.25;;;5.25;;
49223;SDS011;35050;51.316;5.994;2024-03-23T07:12:32;12.77;;;5.43;;
49223;SDS011;35050;51.316;5.994;2024-03-23T07:14:57;15.68;;;5.97;;
49223;SDS011;35050;51.316;5.994;2024-03-23T07:17:23;12.40;;;5.20;;
49223;SDS011;35050;51.316;5.994;2024-03-23T07:19:48;13.32;;;5.57;;
49223;SDS011;35050;51.316;5.994;2024-03-23T07:22:14;14.27;;;5.25;;
49223;SDS011;35050;51.316;5.994;2024-03-23T07:24:40;12.40;;;4.97;;
49223;SDS011;35050;51.316;5.994;2024-03-23T07:27:06;15.70;;;6.03;;
49223;SDS011;35050;51.316;5.994;2024-03-23T07:29:35;15.25;;;5.30;;
49223;SDS011;35050;51.316;5.994;2024-03-23T07:32:01;10.98;;;4.50;;
49223;SDS011;35050;51.316;5.994;2024-03-23T07:34:26;11.48;;;4.72;;
49223;SDS011;35050;51.316;5.994;2024-03-23T07:36:52;13.52;;;4.47;;
49223;SDS011;35050;51.316;5.994;2024-03-23T07:39:18;15.95;;;4.93;;
49223;SDS011;35050;51.316;5.994;2024-03-23T07:41:46;10.95;;;4.53;;
49223;SDS011;35050;51.316;5.994;2024-03-23T07:44:12;10.95;;;4.38;;
49223;SDS011;35050;51.316;5.994;2024-03-23T07:46:37;13.82;;;4.20;;
49223;SDS011;35050;51.316;5.994;2024-03-23T07:49:06;11.25;;;3.92;;
49223;SDS011;35050;51.316;5.994;2024-03-23T07:51:32;13.10;;;3.47;;
49223;SDS011;35050;51.316;5.994;2024-03-23T07:53:58;11.40;;;3.65;;
49223;SDS011;35050;51.316;5.994;2024-03-23T07:56:24;10.85;;;3.25;;
49223;SDS011;35050;51.316;5.994;2024-03-23T07:58:50;14.05;;;3.50;;
49223;SDS011;35050;51.316;5.994;2024-03-23T08:01:16;9.15;;;3.22;;
49223;SDS011;35050;51.316;5.994;2024-03-23T08:03:45;11.50;;;3.75;;
49223;SDS011;35050;51.316;5.994;2024-03-23T08:08:38;9.10;;;2.92;;
49223;SDS011;35050;51.316;5.994;2024-03-23T08:11:05;10.95;;;3.28;;
49223;SDS011;35050;51.316;5.994;2024-03-23T08:13:31;11.45;;;3.28;;
49223;SDS011;35050;51.316;5.994;2024-03-23T08:15:57;13.50;;;3.25;;
49223;SDS011;35050;51.316;5.994;2024-03-23T08:18:26;16.20;;;3.33;;
49223;SDS011;35050;51.316;5.994;2024-03-23T08:20:59;12.07;;;3.60;;
49223;SDS011;35050;51.316;5.994;2024-03-23T08:25:58;11.18;;;2.80;;
49223;SDS011;35050;51.316;5.994;2024-03-23T08:28:28;11.52;;;3.05;;
49223;SDS011;35050;51.316;5.994;2024-03-23T08:30:54;29.02;;;3.72;;
49223;SDS011;35050;51.316;5.994;2024-03-23T08:33:20;10.82;;;3.00;;
49223;SDS011;35050;51.316;5.994;2024-03-23T08:35:53;17.33;;;3.33;;
49223;SDS011;35050;51.316;5.994;2024-03-23T08:38:20;9.95;;;3.17;;
49223;SDS011;35050;51.316;5.994;2024-03-23T08:40:46;9.65;;;2.75;;
49223;SDS011;35050;51.316;5.994;2024-03-23T08:43:12;11.70;;;2.92;;
49223;SDS011;35050;51.316;5.994;2024-03-23T08:45:38;13.05;;;3.00;;
49223;SDS011;35050;51.316;5.994;2024-03-23T08:48:04;10.68;;;3.10;;
49223;SDS011;35050;51.316;5.994;2024-03-23T08:50:30;14.75;;;3.40;;
49223;SDS011;35050;51.316;5.994;2024-03-23T08:52:55;8.15;;;2.85;;
49223;SDS011;35050;51.316;5.994;2024-03-23T08:55:21;15.02;;;3.28;;
49223;SDS011;35050;51.316;5.994;2024-03-23T08:57:46;10.23;;;3.45;;
49223;SDS011;35050;51.316;5.994;2024-03-23T09:00:12;8.90;;;2.58;;
49223;SDS011;35050;51.316;5.994;2024-03-23T09:02:39;11.93;;;2.72;;
49223;SDS011;35050;51.316;5.994;2024-03-23T09:05:05;16.10;;;3.13;;
49223;SDS011;35050;51.316;5.994;2024-03-23T09:07:31;10.77;;;2.65;;
49223;SDS011;35050;51.316;5.994;2024-03-23T09:09:57;9.27;;;2.30;;
49223;SDS011;35050;51.316;5.994;2024-03-23T09:12:22;9.50;;;2.15;;
49223;SDS011;35050;51.316;5.994;2024-03-23T09:14:49;13.95;;;3.03;;
49223;SDS011;35050;51.316;5.994;2024-03-23T09:17:18;7.88;;;2.28;;
49223;SDS011;35050;51.316;5.994;2024-03-23T09:19:44;9.80;;;2.28;;
49223;SDS011;35050;51.316;5.994;2024-03-23T09:22:09;8.20;;;2.33;;
49223;SDS011;35050;51.316;5.994;2024-03-23T09:24:35;10.00;;;2.15;;
49223;SDS011;35050;51.316;5.994;2024-03-23T09:27:01;7.82;;;2.10;;
49223;SDS011;35050;51.316;5.994;2024-03-23T09:29:28;6.57;;;2.20;;
49223;SDS011;35050;51.316;5.994;2024-03-23T09:31:53;6.15;;;1.63;;
49223;SDS011;35050;51.316;5.994;2024-03-23T09:34:19;7.97;;;1.92;;
49223;SDS011;35050;51.316;5.994;2024-03-23T09:36:45;7.53;;;2.10;;
49223;SDS011;35050;51.316;5.994;2024-03-23T09:39:10;8.63;;;1.80;;
49223;SDS011;35050;51.316;5.994;2024-03-23T09:41:36;6.63;;;1.85;;
49223;SDS011;35050;51.316;5.994;2024-03-23T09:44:02;6.00;;;1.58;;
49223;SDS011;35050;51.316;5.994;2024-03-23T09:46:27;4.80;;;1.73;;
49223;SDS011;35050;51.316;5.994;2024-03-23T09:48:59;6.10;;;1.80;;
49223;SDS011;35050;51.316;5.994;2024-03-23T09:51:25;12.70;;;2.00;;
49223;SDS011;35050;51.316;5.994;2024-03-23T09:53:51;8.07;;;1.63;;
49223;SDS011;35050;51.316;5.994;2024-03-23T09:56:18;7.38;;;1.50;;
49223;SDS011;35050;51.316;5.994;2024-03-23T09:58:43;8.02;;;1.58;;
49223;SDS011;35050;51.316;5.994;2024-03-23T10:01:09;3.03;;;0.80;;
49223;SDS011;35050;51.316;5.994;2024-03-23T10:03:42;3.78;;;0.65;;
49223;SDS011;35050;51.316;5.994;2024-03-23T10:06:11;2.70;;;0.55;;
49223;SDS011;35050;51.316;5.994;2024-03-23T10:08:37;2.05;;;0.40;;
49223;SDS011;35050;51.316;5.994;2024-03-23T10:11:12;2.40;;;0.90;;
49223;SDS011;35050;51.316;5.994;2024-03-23T10:13:41;3.97;;;1.00;;
49223;SDS011;35050;51.316;5.994;2024-03-23T10:16:08;4.63;;;1.27;;
49223;SDS011;35050;51.316;5.994;2024-03-23T10:18:37;4.00;;;1.40;;
49223;SDS011;35050;51.316;5.994;2024-03-23T10:21:10;5.95;;;1.67;;
49223;SDS011;35050;51.316;5.994;2024-03-23T10:23:40;6.43;;;1.90;;
49223;SDS011;35050;51.316;5.994;2024-03-23T10:28:51;5.93;;;2.28;;
49223;SDS011;35050;51.316;5.994;2024-03-23T10:31:18;5.72;;;1.70;;
49223;SDS011;35050;51.316;5.994;2024-03-23T10:33:48;5.35;;;1.73;;
49223;SDS011;35050;51.316;5.994;2024-03-23T10:36:14;5.68;;;1.65;;
49223;SDS011;35050;51.316;5.994;2024-03-23T10:38:40;4.68;;;1.80;;
49223;SDS011;35050;51.316;5.994;2024-03-23T10:41:08;5.40;;;1.90;;
49223;SDS011;35050;51.316;5.994;2024-03-23T10:43:38;9.35;;;2.10;;
49223;SDS011;35050;51.316;5.994;2024-03-23T10:46:04;6.05;;;1.88;;
49223;SDS011;35050;51.316;5.994;2024-03-23T10:48:33;6.88;;;2.00;;
49223;SDS011;35050;51.316;5.994;2024-03-23T10:50:59;5.78;;;2.08;;
49223;SDS011;35050;51.316;5.994;2024-03-23T10:53:25;10.55;;;2.55;;
49223;SDS011;35050;51.316;5.994;2024-03-23T10:55:52;6.82;;;2.30;;
49223;SDS011;35050;51.316;5.994;2024-03-23T10:58:19;8.30;;;2.47;;
49223;SDS011;35050;51.316;5.994;2024-03-23T11:00:53;6.75;;;1.70;;
49223;SDS011;35050;51.316;5.994;2024-03-23T11:05:56;4.03;;;0.88;;
49223;SDS011;35050;51.316;5.994;2024-03-23T11:08:32;2.30;;;0.77;;
49223;SDS011;35050;51.316;5.994;2024-03-23T11:11:14;4.03;;;0.93;;
49223;SDS011;35050;51.316;5.994;2024-03-23T11:13:42;5.43;;;0.80;;
49223;SDS011;35050;51.316;5.994;2024-03-23T11:16:23;3.05;;;0.70;;
49223;SDS011;35050;51.316;5.994;2024-03-23T11:18:53;3.88;;;1.17;;
49223;SDS011;35050;51.316;5.994;2024-03-23T11:24:18;4.78;;;1.60;;
49223;SDS011;35050;51.316;5.994;2024-03-23T11:26:45;8.25;;;2.20;;
49223;SDS011;35050;51.316;5.994;2024-03-23T11:29:12;4.25;;;1.20;;
49223;SDS011;35050;51.316;5.994;2024-03-23T11:31:46;5.85;;;1.48;;
49223;SDS011;35050;51.316;5.994;2024-03-23T11:34:16;5.82;;;1.60;;
49223;SDS011;35050;51.316;5.994;2024-03-23T11:36:43;6.28;;;2.03;;
49223;SDS011;35050;51.316;5.994;2024-03-23T11:39:15;6.97;;;1.77;;
49223;SDS011;35050;51.316;5.994;2024-03-23T11:41:52;7.40;;;1.67;;
49223;SDS011;35050;51.316;5.994;2024-03-23T11:44:19;5.32;;;1.70;;
49223;SDS011;35050;51.316;5.994;2024-03-23T11:46:47;3.10;;;1.40;;
49223;SDS011;35050;51.316;5.994;2024-03-23T11:49:23;3.65;;;1.88;;
49223;SDS011;35050;51.316;5.994;2024-03-23T11:51:49;2.28;;;1.20;;
49223;SDS011;35050;51.316;5.994;2024-03-23T11:54:16;2.97;;;1.30;;
49223;SDS011;35050;51.316;5.994;2024-03-23T11:56:53;3.40;;;1.13;;
49223;SDS011;35050;51.316;5.994;2024-03-23T11:59:32;6.05;;;1.65;;
49223;SDS011;35050;51.316;5.994;2024-03-23T12:01:58;4.50;;;1.40;;
49223;SDS011;35050;51.316;5.994;2024-03-23T12:04:27;4.65;;;1.30;;
49223;SDS011;35050;51.316;5.994;2024-03-23T12:10:04;7.30;;;1.73;;
49223;SDS011;35050;51.316;5.994;2024-03-23T12:12:31;4.28;;;1.50;;
49223;SDS011;35050;51.316;5.994;2024-03-23T12:15:04;5.60;;;1.63;;
49223;SDS011;35050;51.316;5.994;2024-03-23T12:17:31;3.78;;;1.13;;
49223;SDS011;35050;51.316;5.994;2024-03-23T12:19:57;11.27;;;1.40;;
49223;SDS011;35050;51.316;5.994;2024-03-23T12:22:23;2.40;;;0.70;;
49223;SDS011;35050;51.316;5.994;2024-03-23T12:24:49;2.33;;;0.95;;
49223;SDS011;35050;51.316;5.994;2024-03-23T12:27:15;3.13;;;0.90;;
49223;SDS011;35050;51.316;5.994;2024-03-23T12:29:41;3.22;;;1.00;;
49223;SDS011;35050;51.316;5.994;2024-03-23T12:32:10;4.93;;;1.05;;
49223;SDS011;35050;51.316;5.994;2024-03-23T12:34:37;3.55;;;1.20;;
49223;SDS011;35050;51.316;5.994;2024-03-23T12:37:02;2.85;;;0.98;;
49223;SDS011;35050;51.316;5.994;2024-03-23T12:39:28;2.67;;;0.88;;
49223;SDS011;35050;51.316;5.994;2024-03-23T12:41:53;1.92;;;0.70;;
49223;SDS011;35050;51.316;5.994;2024-03-23T12:44:19;2.55;;;0.80;;
49223;SDS011;35050;51.316;5.994;2024-03-23T12:46:46;2.10;;;0.80;;
49223;SDS011;35050;51.316;5.994;2024-03-23T12:49:12;3.33;;;0.60;;
49223;SDS011;35050;51.316;5.994;2024-03-23T12:51:37;1.20;;;0.50;;
49223;SDS011;35050;51.316;5.994;2024-03-23T12:54:03;2.10;;;0.73;;
49223;SDS011;35050;51.316;5.994;2024-03-23T12:56:29;2.53;;;0.77;;
49223;SDS011;35050;51.316;5.994;2024-03-23T12:58:55;3.33;;;1.20;;
49223;SDS011;35050;51.316;5.994;2024-03-23T13:01:25;2.17;;;0.60;;
49223;SDS011;35050;51.316;5.994;2024-03-23T13:03:51;3.60;;;1.00;;
49223;SDS011;35050;51.316;5.994;2024-03-23T13:06:18;2.90;;;0.90;;
49223;SDS011;35050;51.316;5.994;2024-03-23T13:08:44;3.65;;;1.10;;
49223;SDS011;35050;51.316;5.994;2024-03-23T13:11:10;3.47;;;0.90;;
49223;SDS011;35050;51.316;5.994;2024-03-23T13:13:37;2.38;;;0.90;;
49223;SDS011;35050;51.316;5.994;2024-03-23T13:16:03;3.22;;;0.95;;
49223;SDS011;35050;51.316;5.994;2024-03-23T13:18:30;2.05;;;0.85;;
49223;SDS011;35050;51.316;5.994;2024-03-23T13:20:56;4.68;;;1.10;;
49223;SDS011;35050;51.316;5.994;2024-03-23T13:23:22;2.25;;;0.98;;
49223;SDS011;35050;51.316;5.994;2024-03-23T13:25:51;6.07;;;1.10;;
49223;SDS011;35050;51.316;5.994;2024-03-23T13:28:18;3.75;;;1.10;;
49223;SDS011;35050;51.316;5.994;2024-03-23T13:30:54;3.03;;;1.13;;
49223;SDS011;35050;51.316;5.994;2024-03-23T13:33:20;3.47;;;1.20;;
49223;SDS011;35050;51.316;5.994;2024-03-23T13:35:50;2.88;;;1.10;;
49223;SDS011;35050;51.316;5.994;2024-03-23T13:38:15;1.65;;;0.75;;
49223;SDS011;35050;51.316;5.994;2024-03-23T13:40:48;0.98;;;0.45;;
49223;SDS011;35050;51.316;5.994;2024-03-23T13:43:24;3.13;;;0.70;;
49223;SDS011;35050;51.316;5.994;2024-03-23T13:45:55;2.45;;;0.57;;
49223;SDS011;35050;51.316;5.994;2024-03-23T13:48:25;1.40;;;0.60;;
49223;SDS011;35050;51.316;5.994;2024-03-23T13:51:02;1.60;;;0.57;;
49223;SDS011;35050;51.316;5.994;2024-03-23T13:53:29;1.52;;;0.50;;
49223;SDS011;35050;51.316;5.994;2024-03-23T13:55:55;0.63;;;0.43;;
49223;SDS011;35050;51.316;5.994;2024-03-23T13:58:21;0.50;;;0.30;;
49223;SDS011;35050;51.316;5.994;2024-03-23T14:00:47;1.85;;;0.52;;
49223;SDS011;35050;51.316;5.994;2024-03-23T14:03:13;1.70;;;0.60;;
49223;SDS011;35050;51.316;5.994;2024-03-23T14:05:39;0.93;;;0.50;;
49223;SDS011;35050;51.316;5.994;2024-03-23T14:08:06;1.13;;;0.52;;
49223;SDS011;35050;51.316;5.994;2024-03-23T14:10:32;2.22;;;0.80;;
49223;SDS011;35050;51.316;5.994;2024-03-23T14:12:58;3.05;;;0.85;;
49223;SDS011;35050;51.316;5.994;2024-03-23T14:15:27;2.00;;;0.60;;
49223;SDS011;35050;51.316;5.994;2024-03-23T14:17:53;1.63;;;0.63;;
49223;SDS011;35050;51.316;5.994;2024-03-23T14:20:19;0.93;;;0.68;;
49223;SDS011;35050;51.316;5.994;2024-03-23T14:22:46;3.08;;;0.80;;
49223;SDS011;35050;51.316;5.994;2024-03-23T14:25:12;1.98;;;0.80;;
49223;SDS011;35050;51.316;5.994;2024-03-23T14:27:38;1.50;;;0.50;;
49223;SDS011;35050;51.316;5.994;2024-03-23T14:30:03;1.90;;;0.70;;
49223;SDS011;35050;51.316;5.994;2024-03-23T14:32:30;2.22;;;0.70;;
49223;SDS011;35050;51.316;5.994;2024-03-23T14:34:59;3.90;;;0.98;;
49223;SDS011;35050;51.316;5.994;2024-03-23T14:37:25;3.80;;;1.15;;
49223;SDS011;35050;51.316;5.994;2024-03-23T14:39:51;2.63;;;0.80;;
49223;SDS011;35050;51.316;5.994;2024-03-23T14:42:17;2.75;;;0.93;;
49223;SDS011;35050;51.316;5.994;2024-03-23T14:44:43;4.50;;;1.20;;
49223;SDS011;35050;51.316;5.994;2024-03-23T14:47:08;3.63;;;1.05;;
49223;SDS011;35050;51.316;5.994;2024-03-23T14:49:34;16.38;;;1.48;;
49223;SDS011;35050;51.316;5.994;2024-03-23T14:51:59;2.17;;;0.80;;
49223;SDS011;35050;51.316;5.994;2024-03-23T14:54:25;2.75;;;1.10;;
49223;SDS011;35050;51.316;5.994;2024-03-23T14:56:51;3.72;;;1.15;;
49223;SDS011;35050;51.316;5.994;2024-03-23T14:59:17;4.00;;;1.00;;
49223;SDS011;35050;51.316;5.994;2024-03-23T15:01:44;3.75;;;1.38;;
49223;SDS011;35050;51.316;5.994;2024-03-23T15:04:10;12.20;;;1.00;;
49223;SDS011;35050;51.316;5.994;2024-03-23T15:06:36;4.18;;;0.90;;
49223;SDS011;35050;51.316;5.994;2024-03-23T15:09:01;3.47;;;0.90;;
49223;SDS011;35050;51.316;5.994;2024-03-23T15:11:32;1.83;;;0.60;;
49223;SDS011;35050;51.316;5.994;2024-03-23T15:13:58;4.05;;;0.63;;
49223;SDS011;35050;51.316;5.994;2024-03-23T15:16:24;0.82;;;0.50;;
49223;SDS011;35050;51.316;5.994;2024-03-23T15:18:49;0.98;;;0.63;;
49223;SDS011;35050;51.316;5.994;2024-03-23T15:21:15;1.02;;;0.50;;
49223;SDS011;35050;51.316;5.994;2024-03-23T15:23:45;0.85;;;0.52;;
49223;SDS011;35050;51.316;5.994;2024-03-23T15:26:11;2.50;;;0.57;;
49223;SDS011;35050;51.316;5.994;2024-03-23T15:28:36;0.93;;;0.47;;
49223;SDS011;35050;51.316;5.994;2024-03-23T15:31:28;0.50;;;0.32;;
49223;SDS011;35050;51.316;5.994;2024-03-23T15:33:55;0.32;;;0.25;;
49223;SDS011;35050;51.316;5.994;2024-03-23T15:36:20;0.80;;;0.40;;
49223;SDS011;35050;51.316;5.994;2024-03-23T15:38:46;0.73;;;0.40;;
49223;SDS011;35050;51.316;5.994;2024-03-23T15:41:14;1.52;;;0.60;;
49223;SDS011;35050;51.316;5.994;2024-03-23T15:43:39;0.90;;;0.45;;
49223;SDS011;35050;51.316;5.994;2024-03-23T15:46:06;0.63;;;0.40;;
49223;SDS011;35050;51.316;5.994;2024-03-23T15:48:33;1.60;;;0.32;;
49223;SDS011;35050;51.316;5.994;2024-03-23T15:51:00;1.95;;;0.45;;